createdAt,value
2019-06-08T00:00:08.144Z,15.30
2019-06-08T00:02:55.740Z,15.30
2019-06-08T00:05:42.888Z,15.30
2019-06-08T00:08:30.090Z,15.30
2019-06-08T00:11:17.248Z,15.30
2019-06-08T00:14:04.385Z,15.30
2019-06-08T00:16:51.526Z,15.30
2019-06-08T00:19:38.554Z,15.20
2019-06-08T00:22:25.995Z,15.20
2019-06-08T00:25:13.776Z,15.20
2019-06-08T00:28:01.282Z,15.20
2019-06-08T00:30:48.456Z,15.10
2019-06-08T00:33:35.525Z,15.10
2019-06-08T00:36:22.879Z,15.20
2019-06-08T00:39:10.398Z,15.10
2019-06-08T00:41:57.371Z,15.10
2019-06-08T00:44:44.562Z,15.00
2019-06-08T00:47:46.958Z,15.10
2019-06-08T00:50:21.381Z,15.10
2019-06-08T00:53:08.573Z,15.10
2019-06-08T00:55:56.016Z,15.10
2019-06-08T00:58:43.305Z,15.00
2019-06-08T01:01:30.981Z,15.00
2019-06-08T01:04:18.610Z,14.90
2019-06-08T01:07:05.927Z,14.90
2019-06-08T01:09:53.390Z,14.90
2019-06-08T01:12:39.437Z,15.00
2019-06-08T01:15:32.667Z,15.10
2019-06-08T01:18:15.479Z,15.20
2019-06-08T01:21:01.522Z,15.20
2019-06-08T01:23:48.714Z,15.20
2019-06-08T01:26:35.606Z,15.20
2019-06-08T01:29:24.119Z,15.20
2019-06-08T01:32:11.388Z,15.20
2019-06-08T01:34:58.604Z,15.20
2019-06-08T01:37:46.001Z,15.20
2019-06-08T01:40:33.578Z,15.20
2019-06-08T01:43:21.763Z,15.10
2019-06-08T01:46:08.509Z,15.20
2019-06-08T01:48:55.170Z,15.10
2019-06-08T01:51:42.027Z,15.10
2019-06-08T01:54:29.782Z,15.20
2019-06-08T01:57:17.308Z,15.30
2019-06-08T02:00:29.445Z,15.30
2019-06-08T02:02:57.181Z,15.30
2019-06-08T02:05:44.250Z,15.30
2019-06-08T02:08:31.160Z,15.20
2019-06-08T02:11:18.149Z,15.20
2019-06-08T02:14:05.553Z,15.20
2019-06-08T02:16:52.440Z,15.30
2019-06-08T02:19:39.355Z,15.40
2019-06-08T02:22:26.766Z,15.40
2019-06-08T02:25:15.370Z,15.40
2019-06-08T02:28:02.034Z,15.20
2019-06-08T02:30:49.378Z,15.10
2019-06-08T02:33:37.328Z,15.10
2019-06-08T02:36:24.619Z,15.00
2019-06-08T02:39:11.802Z,15.00
2019-06-08T02:41:59.181Z,14.90
2019-06-08T02:44:46.511Z,14.90
2019-06-08T02:47:34.465Z,14.90
2019-06-08T02:50:51.445Z,14.90
2019-06-08T02:53:39.270Z,14.90
2019-06-08T02:56:27.339Z,14.80
2019-06-08T02:59:15.234Z,14.90
2019-06-08T03:02:03.507Z,14.90
2019-06-08T03:04:52.612Z,15.00
2019-06-08T03:07:42.494Z,14.90
2019-06-08T03:10:30.852Z,14.90
2019-06-08T03:13:19.655Z,14.90
2019-06-08T03:16:07.006Z,14.90
2019-06-08T03:18:53.092Z,14.90
2019-06-08T03:21:40.953Z,14.90
2019-06-08T03:24:29.219Z,14.80
2019-06-08T03:27:16.302Z,14.80
2019-06-08T03:30:15.953Z,14.80
2019-06-08T03:32:56.264Z,14.70
2019-06-08T03:35:52.596Z,14.70
2019-06-08T03:38:31.600Z,14.60
2019-06-08T03:41:17.658Z,14.60
2019-06-08T03:44:05.135Z,14.50
2019-06-08T03:46:52.232Z,14.50
2019-06-08T03:49:50.626Z,14.50
2019-06-08T03:52:28.439Z,14.60
2019-06-08T03:55:16.029Z,14.50
2019-06-08T03:58:03.653Z,14.50
2019-06-08T04:00:50.900Z,14.60
2019-06-08T04:03:39.813Z,14.60
2019-06-08T04:06:26.976Z,14.60
2019-06-08T04:09:13.086Z,14.60
2019-06-08T04:12:00.198Z,14.50
2019-06-08T04:14:47.314Z,14.50
2019-06-08T04:17:34.277Z,14.50
2019-06-08T04:20:21.534Z,14.50
2019-06-08T04:23:08.593Z,14.50
2019-06-08T04:25:58.737Z,14.50
2019-06-08T04:28:47.290Z,14.40
2019-06-08T04:31:37.669Z,14.40
2019-06-08T04:34:23.350Z,14.30
2019-06-08T04:37:10.704Z,14.40
2019-06-08T04:39:57.969Z,14.50
2019-06-08T04:42:46.707Z,14.50
2019-06-08T04:45:34.353Z,14.60
2019-06-08T04:48:21.697Z,14.60
2019-06-08T04:51:08.670Z,14.70
2019-06-08T04:53:55.735Z,14.60
2019-06-08T04:56:42.816Z,14.70
2019-06-08T04:59:30.118Z,14.80
2019-06-08T05:02:17.185Z,14.70
2019-06-08T05:05:04.569Z,14.80
2019-06-08T05:07:52.155Z,14.90
2019-06-08T05:10:41.146Z,15.00
2019-06-08T05:13:28.431Z,15.10
2019-06-08T05:16:21.473Z,15.20
2019-06-08T05:19:08.569Z,15.30
2019-06-08T05:21:55.804Z,15.20
2019-06-08T05:24:43.491Z,15.20
2019-06-08T05:27:30.598Z,15.20
2019-06-08T05:30:18.807Z,15.10
2019-06-08T05:33:06.474Z,15.10
2019-06-08T05:35:53.547Z,14.90
2019-06-08T05:38:39.540Z,15.00
2019-06-08T05:41:26.387Z,15.10
2019-06-08T05:44:13.647Z,15.10
2019-06-08T05:47:00.471Z,15.10
2019-06-08T05:49:48.046Z,15.10
2019-06-08T05:52:35.091Z,15.20
2019-06-08T05:55:21.733Z,15.40
2019-06-08T05:58:13.200Z,15.50
2019-06-08T06:01:00.348Z,15.40
2019-06-08T06:03:48.690Z,15.40
2019-06-08T06:06:35.903Z,15.60
2019-06-08T06:09:21.923Z,15.50
2019-06-08T06:12:09.068Z,15.60
2019-06-08T06:14:56.779Z,15.50
2019-06-08T06:17:46.666Z,15.50
2019-06-08T06:20:33.727Z,15.50
2019-06-08T06:23:21.146Z,15.60
2019-06-08T06:26:07.167Z,15.60
2019-06-08T06:28:58.738Z,15.80
2019-06-08T06:31:47.727Z,15.70
2019-06-08T06:34:34.714Z,15.80
2019-06-08T06:37:25.114Z,16.10
2019-06-08T06:40:12.495Z,16.20
2019-06-08T06:43:00.895Z,16.20
2019-06-08T06:45:48.235Z,16.20
2019-06-08T06:48:35.440Z,16.20
2019-06-08T06:51:26.345Z,16.20
2019-06-08T06:54:11.754Z,16.20
2019-06-08T06:56:58.987Z,16.30
2019-06-08T06:59:45.750Z,16.20
2019-06-08T07:02:32.989Z,16.10
2019-06-08T07:05:20.034Z,16.20
2019-06-08T07:08:08.810Z,16.00
2019-06-08T07:10:55.863Z,16.00
2019-06-08T07:13:42.982Z,16.00
2019-06-08T07:16:31.911Z,15.90
2019-06-08T07:19:21.555Z,16.00
2019-06-08T07:22:08.518Z,16.00
2019-06-08T07:24:55.827Z,16.00
2019-06-08T07:27:42.860Z,15.90
2019-06-08T07:30:30.001Z,15.90
2019-06-08T07:33:17.251Z,16.00
2019-06-08T07:36:04.395Z,16.00
2019-06-08T07:38:51.428Z,16.00
2019-06-08T07:41:38.325Z,15.90
2019-06-08T07:44:25.654Z,16.10
2019-06-08T07:47:12.601Z,16.00
2019-06-08T07:49:59.677Z,16.20
2019-06-08T07:52:47.985Z,16.30
2019-06-08T07:55:35.770Z,16.40
2019-06-08T07:58:22.946Z,16.40
2019-06-08T08:01:10.057Z,16.70
2019-06-08T08:03:58.337Z,17.00
2019-06-08T08:06:45.989Z,17.40
2019-06-08T08:09:32.626Z,17.80
2019-06-08T08:12:19.884Z,17.30
2019-06-08T08:15:08.052Z,17.10
2019-06-08T08:17:57.730Z,17.00
2019-06-08T08:20:44.551Z,17.00
2019-06-08T08:23:32.639Z,16.90
2019-06-08T08:26:19.825Z,16.80
2019-06-08T08:29:08.510Z,16.60
2019-06-08T08:31:58.789Z,16.60
2019-06-08T08:34:47.539Z,16.50
2019-06-08T08:37:33.931Z,16.50
2019-06-08T08:40:21.021Z,16.50
2019-06-08T08:43:09.332Z,16.60
2019-06-08T08:45:58.685Z,16.70
2019-06-08T08:48:50.967Z,17.00
2019-06-08T08:51:38.160Z,17.30
2019-06-08T08:54:27.530Z,17.40
2019-06-08T08:57:13.958Z,17.60
2019-06-08T09:00:04.787Z,17.60
2019-06-08T09:02:59.059Z,17.50
2019-06-08T09:05:38.336Z,17.40
2019-06-08T09:08:27.762Z,17.40
2019-06-08T09:11:14.369Z,17.40
2019-06-08T09:14:05.163Z,17.50
2019-06-08T09:16:51.901Z,17.50
2019-06-08T09:19:38.502Z,17.30
2019-06-08T09:22:28.192Z,17.40
2019-06-08T09:25:14.471Z,17.40
2019-06-08T09:28:04.635Z,17.30
2019-06-08T09:30:50.059Z,17.20
2019-06-08T09:33:38.860Z,17.40
2019-06-08T09:36:40.666Z,17.50
2019-06-08T09:39:39.576Z,17.60
2019-06-08T09:42:28.459Z,17.40
2019-06-08T09:45:29.004Z,17.60
2019-06-08T09:48:13.608Z,17.70
2019-06-08T09:51:03.962Z,17.90
2019-06-08T09:53:54.228Z,17.80
2019-06-08T09:56:40.351Z,17.70
2019-06-08T09:59:30.248Z,17.70
2019-06-08T10:02:18.502Z,17.70
2019-06-08T10:05:06.424Z,17.60
2019-06-08T10:07:54.476Z,17.70
2019-06-08T10:10:41.760Z,18.00
2019-06-08T10:13:30.564Z,17.90
2019-06-08T10:16:18.570Z,17.80
2019-06-08T10:19:10.133Z,17.90
2019-06-08T10:21:56.809Z,18.00
2019-06-08T10:24:44.811Z,18.30
2019-06-08T10:27:33.273Z,18.30
2019-06-08T10:30:20.126Z,18.60
2019-06-08T10:33:12.648Z,18.70
2019-06-08T10:36:02.367Z,18.70
2019-06-08T10:38:48.302Z,18.50
2019-06-08T10:41:35.539Z,18.60
2019-06-08T10:44:22.528Z,18.70
2019-06-08T10:47:11.574Z,19.00
2019-06-08T10:49:59.556Z,19.00
2019-06-08T10:52:45.968Z,19.00
2019-06-08T10:55:33.353Z,18.90
2019-06-08T10:58:19.688Z,19.00
2019-06-08T11:01:12.166Z,18.80
2019-06-08T11:03:58.071Z,18.70
2019-06-08T11:06:44.304Z,18.80
2019-06-08T11:09:31.159Z,18.80
2019-06-08T11:12:18.521Z,18.80
2019-06-08T11:15:09.097Z,18.80
2019-06-08T11:17:54.963Z,18.60
2019-06-08T11:20:42.190Z,18.60
2019-06-08T11:23:29.117Z,18.50
2019-06-08T11:26:20.948Z,18.70
2019-06-08T11:29:05.131Z,18.90
2019-06-08T11:31:53.240Z,18.80
2019-06-08T11:34:40.226Z,19.30
2019-06-08T11:37:27.272Z,19.80
2019-06-08T11:40:14.730Z,20.00
2019-06-08T11:43:02.310Z,20.00
2019-06-08T11:45:49.686Z,20.10
2019-06-08T11:48:41.525Z,20.20
2019-06-08T11:51:30.384Z,19.90
2019-06-08T11:54:33.027Z,19.80
2019-06-08T11:57:11.031Z,19.60
2019-06-08T11:59:58.445Z,19.60
2019-06-08T12:02:48.498Z,19.30
2019-06-08T12:05:34.668Z,19.70
2019-06-08T12:08:28.414Z,20.50
2019-06-08T12:11:18.750Z,20.80
2019-06-08T12:14:03.331Z,21.00
2019-06-08T12:16:53.402Z,20.80
2019-06-08T12:19:40.564Z,20.40
2019-06-08T12:22:29.153Z,21.10
2019-06-08T12:25:16.201Z,20.90
2019-06-08T12:28:04.539Z,21.00
2019-06-08T12:30:54.616Z,21.30
2019-06-08T12:33:43.794Z,21.40
2019-06-08T12:36:34.408Z,21.40
2019-06-08T12:39:21.582Z,21.80
2019-06-08T12:42:15.582Z,21.60
2019-06-08T12:45:00.639Z,21.50
2019-06-08T12:47:47.920Z,21.40
2019-06-08T12:50:35.337Z,21.00
2019-06-08T12:53:23.140Z,21.20
2019-06-08T12:56:11.827Z,21.40
2019-06-08T12:58:58.724Z,21.40
2019-06-08T13:01:45.004Z,21.30
2019-06-08T13:04:31.638Z,21.40
2019-06-08T13:07:19.027Z,21.70
2019-06-08T13:10:08.827Z,21.50
2019-06-08T13:12:58.200Z,21.10
2019-06-08T13:15:44.484Z,21.00
2019-06-08T13:18:31.933Z,21.00
2019-06-08T13:21:31.973Z,20.90
2019-06-08T13:24:10.184Z,20.90
2019-06-08T13:26:58.093Z,20.80
2019-06-08T13:29:45.497Z,20.90
2019-06-08T13:32:33.004Z,20.70
2019-06-08T13:35:22.339Z,21.00
2019-06-08T13:38:08.921Z,21.50
2019-06-08T13:40:58.568Z,21.50
2019-06-08T13:43:47.652Z,21.30
2019-06-08T13:46:33.758Z,21.30
2019-06-08T13:49:25.530Z,21.40
2019-06-08T13:52:09.227Z,21.80
2019-06-08T13:54:58.207Z,21.90
2019-06-08T13:57:45.567Z,22.20
2019-06-08T14:00:38.331Z,22.40
2019-06-08T14:03:24.571Z,22.20
2019-06-08T14:06:14.091Z,22.00
2019-06-08T14:09:01.664Z,22.20
2019-06-08T14:11:48.784Z,22.30
2019-06-08T14:14:39.712Z,21.80
2019-06-08T14:17:27.133Z,21.50
2019-06-08T14:20:19.838Z,21.60
2019-06-08T14:23:08.730Z,22.10
2019-06-08T14:25:59.478Z,22.20
2019-06-08T14:28:44.490Z,22.00
2019-06-08T14:31:34.493Z,21.80
2019-06-08T14:34:26.919Z,21.70
2019-06-08T14:37:14.795Z,21.90
2019-06-08T14:40:01.636Z,22.00
2019-06-08T14:42:49.571Z,21.70
2019-06-08T14:45:37.781Z,21.50
2019-06-08T14:48:28.165Z,21.90
2019-06-08T14:51:13.431Z,21.80
2019-06-08T14:54:00.179Z,21.90
2019-06-08T14:56:47.414Z,22.10
2019-06-08T14:59:34.488Z,21.90
2019-06-08T15:02:26.151Z,21.60
2019-06-08T15:05:18.558Z,21.80
2019-06-08T15:08:08.140Z,22.20
2019-06-08T15:10:53.955Z,22.70
2019-06-08T15:13:41.034Z,22.40
2019-06-08T15:16:32.467Z,22.30
2019-06-08T15:19:18.414Z,21.60
2019-06-08T15:22:08.842Z,21.70
2019-06-08T15:24:57.998Z,21.80
2019-06-08T15:27:44.942Z,21.80
2019-06-08T15:30:33.490Z,21.90
2019-06-08T15:33:24.890Z,22.10
2019-06-08T15:36:12.298Z,22.30
2019-06-08T15:38:59.224Z,22.80
2019-06-08T15:41:48.579Z,23.10
2019-06-08T15:44:35.217Z,23.20
2019-06-08T15:47:26.180Z,23.20
2019-06-08T15:50:14.219Z,23.10
2019-06-08T15:53:01.440Z,23.10
2019-06-08T15:55:51.526Z,23.30
2019-06-08T15:58:40.212Z,23.60
2019-06-08T16:01:27.257Z,23.60
2019-06-08T16:04:14.462Z,23.40
2019-06-08T16:07:01.310Z,23.10
2019-06-08T16:09:48.456Z,22.90
2019-06-08T16:12:35.510Z,22.60
2019-06-08T16:15:22.545Z,22.80
2019-06-08T16:18:09.807Z,23.20
2019-06-08T16:20:57.196Z,23.30
2019-06-08T16:23:44.477Z,23.70
2019-06-08T16:26:31.739Z,23.70
2019-06-08T16:29:18.761Z,23.40
2019-06-08T16:32:06.028Z,23.10
2019-06-08T16:34:54.715Z,23.00
2019-06-08T16:37:41.860Z,22.80
2019-06-08T16:40:29.875Z,23.30
2019-06-08T16:43:17.711Z,23.60
2019-06-08T16:46:04.935Z,23.00
2019-06-08T16:48:51.991Z,22.50
2019-06-08T16:51:39.953Z,22.00
2019-06-08T16:54:28.563Z,21.70
2019-06-08T16:57:17.105Z,21.60
2019-06-08T17:02:56.656Z,21.80
2019-06-08T17:05:43.820Z,22.50
2019-06-08T17:08:37.037Z,23.00
2019-06-08T17:11:22.647Z,23.40
2019-06-08T17:14:18.397Z,23.70
2019-06-08T17:17:05.467Z,23.70
2019-06-08T17:19:52.588Z,23.70
2019-06-08T17:22:42.380Z,23.70
2019-06-08T17:25:30.585Z,23.80
2019-06-08T17:28:17.836Z,24.30
2019-06-08T17:31:05.448Z,24.30
2019-06-08T17:33:52.457Z,24.20
2019-06-08T17:36:40.626Z,23.90
2019-06-08T17:39:29.497Z,24.00
2019-06-08T17:42:17.690Z,24.30
2019-06-08T17:45:06.995Z,24.30
2019-06-08T17:47:53.847Z,24.40
2019-06-08T17:50:40.832Z,24.40
2019-06-08T17:53:28.150Z,24.70
2019-06-08T17:56:15.097Z,24.70
2019-06-08T17:59:02.061Z,24.30
2019-06-08T18:01:49.668Z,23.50
2019-06-08T18:04:38.377Z,22.80
2019-06-08T18:07:27.620Z,22.20
2019-06-08T18:10:17.987Z,21.70
2019-06-08T18:13:04.707Z,21.20
2019-06-08T18:15:51.923Z,20.90
2019-06-08T18:18:41.868Z,20.60
2019-06-08T18:21:28.342Z,20.40
2019-06-08T18:24:17.552Z,20.20
2019-06-08T18:27:04.635Z,20.00
2019-06-08T18:29:51.714Z,20.00
2019-06-08T18:32:40.560Z,20.00
2019-06-08T18:35:27.884Z,20.00
2019-06-08T18:38:15.147Z,20.00
2019-06-08T18:41:02.424Z,19.80
2019-06-08T18:43:52.506Z,19.80
2019-06-08T18:49:29.310Z,19.80
2019-06-08T18:52:17.906Z,19.80
2019-06-08T18:55:08.474Z,19.70
2019-06-08T18:57:57.168Z,19.70
2019-06-08T19:00:48.526Z,19.60
2019-06-08T19:03:33.473Z,19.50
2019-06-08T19:06:21.207Z,19.60
2019-06-08T19:09:12.156Z,19.50
2019-06-08T19:12:00.776Z,19.30
2019-06-08T19:14:48.366Z,19.30
2019-06-08T19:17:44.442Z,19.20
2019-06-08T19:20:25.435Z,19.20
2019-06-08T19:23:11.468Z,19.10
2019-06-08T19:26:00.474Z,19.10
2019-06-08T19:28:52.128Z,19.00
2019-06-08T19:31:38.968Z,19.00
2019-06-08T19:34:27.928Z,19.00
2019-06-08T19:37:13.492Z,19.00
2019-06-08T19:40:00.726Z,18.90
2019-06-08T19:42:55.395Z,18.70
2019-06-08T19:45:35.492Z,18.50
2019-06-08T19:48:22.778Z,18.40
2019-06-08T19:51:09.771Z,18.20
2019-06-08T19:53:58.308Z,18.00
2019-06-08T19:56:52.456Z,17.90
2019-06-08T19:59:34.103Z,17.50
2019-06-08T20:02:21.253Z,17.30
2019-06-08T20:05:10.457Z,17.10
2019-06-08T20:07:57.691Z,16.90
2019-06-08T20:10:45.160Z,16.60
2019-06-08T20:13:32.746Z,16.30
2019-06-08T20:16:21.121Z,16.10
2019-06-08T20:19:08.156Z,16.00
2019-06-08T20:21:55.362Z,16.00
2019-06-08T20:24:42.511Z,15.80
2019-06-08T20:27:29.588Z,15.70
2019-06-08T20:30:17.607Z,15.30
2019-06-08T20:33:04.465Z,15.10
2019-06-08T20:35:51.985Z,14.90
2019-06-08T20:38:42.318Z,15.00
2019-06-08T20:41:28.210Z,14.90
2019-06-08T20:44:15.303Z,14.90
2019-06-08T20:47:02.347Z,14.90
2019-06-08T20:49:51.844Z,14.80
2019-06-08T20:52:38.826Z,14.60
2019-06-08T20:55:28.013Z,14.30
2019-06-08T20:58:14.447Z,14.20
2019-06-08T21:01:01.304Z,14.10
2019-06-08T21:03:48.571Z,14.10
2019-06-08T21:06:35.294Z,13.80
2019-06-08T21:09:22.319Z,13.70
2019-06-08T21:12:11.379Z,13.50
2019-06-08T21:14:58.601Z,13.50
2019-06-08T21:17:49.108Z,13.50
2019-06-08T21:20:34.314Z,13.50
2019-06-08T21:23:21.653Z,13.40
2019-06-08T21:26:08.675Z,13.20
2019-06-08T21:28:59.654Z,13.20
2019-06-08T21:31:44.542Z,13.30
2019-06-08T21:34:30.573Z,13.30
2019-06-08T21:37:18.592Z,13.10
2019-06-08T21:40:08.500Z,13.00
2019-06-08T21:42:59.974Z,12.90
2019-06-08T21:45:48.708Z,12.70
2019-06-08T21:48:34.652Z,12.50
2019-06-08T21:51:20.749Z,12.50
2019-06-08T21:54:08.087Z,12.60
2019-06-08T21:56:54.741Z,12.60
2019-06-08T21:59:41.704Z,12.70
2019-06-08T22:02:28.961Z,12.70
2019-06-08T22:05:16.811Z,12.50
2019-06-08T22:08:03.696Z,12.30
2019-06-08T22:10:51.517Z,12.20
2019-06-08T22:13:40.320Z,12.10
2019-06-08T22:16:27.802Z,12.00
2019-06-08T22:19:14.935Z,12.00
2019-06-08T22:22:02.551Z,12.10
2019-06-08T22:24:53.177Z,12.20
2019-06-08T22:27:40.084Z,12.20
2019-06-08T22:30:38.806Z,12.20
2019-06-08T22:33:17.436Z,12.30
2019-06-08T22:36:04.361Z,12.20
2019-06-08T22:38:52.845Z,12.20
2019-06-08T22:41:40.179Z,12.30
2019-06-08T22:44:28.428Z,12.30
2019-06-08T22:47:18.470Z,12.20
2019-06-08T22:50:07.931Z,12.20
2019-06-08T22:52:57.397Z,11.90
2019-06-08T22:55:43.920Z,11.90
2019-06-08T22:58:31.083Z,11.90
2019-06-08T23:01:18.710Z,11.90
2019-06-08T23:04:08.705Z,11.70
2019-06-08T23:06:55.816Z,11.60
2019-06-08T23:09:43.588Z,11.50
2019-06-08T23:12:32.391Z,11.50
2019-06-08T23:15:19.734Z,11.60
2019-06-08T23:18:09.418Z,11.50
2019-06-08T23:20:58.248Z,11.30
2019-06-08T23:23:44.271Z,11.20
2019-06-08T23:26:31.318Z,11.10
2019-06-08T23:29:18.278Z,11.10
2019-06-08T23:32:09.520Z,11.10
2019-06-08T23:34:54.793Z,11.20
2019-06-08T23:37:40.829Z,11.20
2019-06-08T23:40:28.230Z,11.10
2019-06-08T23:43:17.922Z,11.10
2019-06-08T23:46:04.158Z,11.20
2019-06-08T23:48:51.504Z,11.00
2019-06-08T23:51:38.499Z,11.00
2019-06-08T23:54:27.874Z,10.90
2019-06-08T23:57:15.101Z,10.80
